createdAt,value
2019-04-23T00:01:46.335Z,43.50
2019-04-23T00:04:07.223Z,43.60
2019-04-23T00:06:33.790Z,43.60
2019-04-23T00:09:06.752Z,43.60
2019-04-23T00:11:25.552Z,43.60
2019-04-23T00:14:12.181Z,43.60
2019-04-23T00:16:27.637Z,43.60
2019-04-23T00:18:46.824Z,43.60
2019-04-23T00:24:15.772Z,43.60
2019-04-23T00:26:30.619Z,43.60
2019-04-23T00:28:58.930Z,43.60
2019-04-23T00:31:31.774Z,43.60
2019-04-23T00:33:44.450Z,43.60
2019-04-23T00:36:20.545Z,43.70
2019-04-23T00:38:45.510Z,43.70
2019-04-23T00:41:09.088Z,43.60
2019-04-23T00:43:38.913Z,43.60
2019-04-23T00:45:59.241Z,43.70
2019-04-23T00:53:25.158Z,43.70
2019-04-23T00:56:03.921Z,43.70
2019-04-23T00:58:22.132Z,43.60
2019-04-23T01:00:47.375Z,43.60
2019-04-23T01:03:12.166Z,43.60
2019-04-23T01:05:55.686Z,43.60
2019-04-23T01:08:15.112Z,43.60
2019-04-23T01:10:45.834Z,43.60
2019-04-23T01:13:08.916Z,43.60
2019-04-23T01:15:39.771Z,43.60
2019-04-23T01:20:39.122Z,43.60
2019-04-23T01:22:42.184Z,43.60
2019-04-23T01:25:21.201Z,43.60
2019-04-23T01:28:07.711Z,43.70
2019-04-23T01:30:34.359Z,43.60
2019-04-23T01:33:03.363Z,43.70
2019-04-23T01:35:24.856Z,43.60
2019-04-23T01:37:58.168Z,43.60
2019-04-23T01:40:31.949Z,43.60
2019-04-23T01:42:49.332Z,43.60
2019-04-23T01:47:49.629Z,43.60
2019-04-23T01:52:50.578Z,43.60
2019-04-23T01:55:16.867Z,43.60
2019-04-23T01:57:40.906Z,43.60
2019-04-23T02:00:08.517Z,43.60
2019-04-23T02:02:36.123Z,43.60
2019-04-23T02:05:01.430Z,43.60
2019-04-23T02:07:29.663Z,43.60
2019-04-23T02:09:58.674Z,43.50
2019-04-23T02:12:20.710Z,43.60
2019-04-23T02:14:49.971Z,43.60
2019-04-23T02:17:19.780Z,43.60
2019-04-23T02:19:46.080Z,43.60
2019-04-23T02:22:28.503Z,43.60
2019-04-23T02:24:52.268Z,43.60
2019-04-23T02:27:24.908Z,43.60
2019-04-23T02:29:51.262Z,43.60
2019-04-23T02:32:08.887Z,43.60
2019-04-23T02:34:52.261Z,43.60
2019-04-23T02:37:17.158Z,43.60
2019-04-23T02:39:51.318Z,43.60
2019-04-23T02:42:22.845Z,43.60
2019-04-23T02:44:24.123Z,43.60
2019-04-23T02:49:36.138Z,43.50
2019-04-23T02:51:59.325Z,43.60
2019-04-23T02:56:51.442Z,43.60
2019-04-23T02:59:19.426Z,43.60
2019-04-23T03:06:38.901Z,43.50
2019-04-23T03:09:00.475Z,43.60
2019-04-23T03:11:30.628Z,43.60
2019-04-23T03:19:10.748Z,43.50
2019-04-23T03:21:47.361Z,43.60
2019-04-23T03:24:31.120Z,44.20
2019-04-23T03:27:00.938Z,43.60
2019-04-23T03:29:21.969Z,43.60
2019-04-23T03:34:19.674Z,43.50
2019-04-23T03:37:02.200Z,43.50
2019-04-23T03:38:54.313Z,43.50
2019-04-23T03:41:27.799Z,43.50
2019-04-23T03:43:48.992Z,43.50
2019-04-23T03:48:51.173Z,43.50
2019-04-23T03:51:16.286Z,43.40
2019-04-23T03:53:52.241Z,43.40
2019-04-23T04:01:11.921Z,43.40
2019-04-23T04:04:03.898Z,43.40
2019-04-23T04:06:05.543Z,43.30
2019-04-23T04:13:30.792Z,43.40
2019-04-23T04:15:57.237Z,43.30
2019-04-23T04:25:40.251Z,43.30
2019-04-23T04:28:12.172Z,43.30
2019-04-23T04:30:38.436Z,43.30
2019-04-23T04:33:15.094Z,43.30
2019-04-23T04:35:29.027Z,43.30
2019-04-23T04:38:07.888Z,43.30
2019-04-23T04:45:37.124Z,43.20
2019-04-23T04:50:09.933Z,43.20
2019-04-23T04:55:19.463Z,43.20
2019-04-23T05:00:24.569Z,43.20
2019-04-23T05:02:38.980Z,43.10
2019-04-23T05:05:09.087Z,43.10
2019-04-23T05:10:05.857Z,43.10
2019-04-23T05:14:52.833Z,43.10
2019-04-23T05:17:23.768Z,43.10
2019-04-23T05:19:53.321Z,43.10
2019-04-23T05:27:02.536Z,43.10
2019-04-23T05:29:31.365Z,43.10
2019-04-23T05:32:02.832Z,43.00
2019-04-23T05:34:24.651Z,43.10
2019-04-23T05:36:58.388Z,43.00
2019-04-23T05:41:47.852Z,43.00
2019-04-23T05:46:39.466Z,42.90
2019-04-23T05:51:45.746Z,42.90
2019-04-23T05:54:22.711Z,43.00
2019-04-23T05:56:27.784Z,42.90
2019-04-23T05:58:58.248Z,42.90
2019-04-23T06:04:03.667Z,42.90
2019-04-23T06:06:36.141Z,42.90
2019-04-23T06:08:49.357Z,42.90
2019-04-23T06:11:22.672Z,42.90
2019-04-23T06:13:44.053Z,42.80
2019-04-23T06:16:15.743Z,42.80
2019-04-23T06:18:40.823Z,42.80
2019-04-23T06:21:10.062Z,42.90
2019-04-23T06:23:38.176Z,42.80
2019-04-23T06:26:10.172Z,42.80
2019-04-23T06:28:28.354Z,42.80
2019-04-23T06:30:56.086Z,42.80
2019-04-23T06:33:22.773Z,42.80
2019-04-23T06:35:51.598Z,42.70
2019-04-23T06:38:39.117Z,42.70
2019-04-23T06:40:44.931Z,42.70
2019-04-23T06:45:37.801Z,42.70
2019-04-23T06:48:16.181Z,42.70
2019-04-23T06:50:43.239Z,42.70
2019-04-23T06:53:02.436Z,42.70
2019-04-23T06:57:58.574Z,42.70
2019-04-23T07:00:29.541Z,42.70
2019-04-23T07:02:57.041Z,42.70
2019-04-23T07:05:40.946Z,42.70
2019-04-23T07:12:41.367Z,42.70
2019-04-23T07:15:24.656Z,42.70
2019-04-23T07:17:32.541Z,42.60
2019-04-23T07:20:00.290Z,42.70
2019-04-23T07:22:46.348Z,42.70
2019-04-23T07:25:00.115Z,42.70
2019-04-23T07:29:56.802Z,42.70
2019-04-23T07:32:15.494Z,42.70
2019-04-23T07:34:49.514Z,42.70
2019-04-23T07:37:15.452Z,42.70
2019-04-23T07:39:57.070Z,42.70
2019-04-23T07:42:28.037Z,42.70
2019-04-23T07:45:02.502Z,42.70
2019-04-23T07:48:27.626Z,42.80
2019-04-23T07:50:54.478Z,42.60
2019-04-23T07:53:24.616Z,42.70
2019-04-23T07:55:56.407Z,42.70
2019-04-23T08:00:48.888Z,42.70
2019-04-23T08:05:40.927Z,42.80
2019-04-23T08:08:07.524Z,42.80
2019-04-23T08:10:37.607Z,42.80
2019-04-23T08:13:14.449Z,42.70
2019-04-23T08:18:00.215Z,42.80
2019-04-23T08:20:30.749Z,42.80
2019-04-23T08:22:57.237Z,42.70
2019-04-23T08:27:24.989Z,42.80
2019-04-23T08:29:58.839Z,42.80
2019-04-23T08:32:36.917Z,42.80
2019-04-23T08:37:26.950Z,42.80
2019-04-23T08:44:59.463Z,42.70
2019-04-23T08:47:20.307Z,42.70
2019-04-23T08:49:47.023Z,42.70
2019-04-23T08:52:15.615Z,42.70
2019-04-23T08:54:52.033Z,42.80
2019-04-23T08:59:42.391Z,42.70
2019-04-23T09:02:18.738Z,42.70
2019-04-23T09:04:31.224Z,42.70
2019-04-23T09:06:53.180Z,42.70
2019-04-23T09:09:24.944Z,42.70
2019-04-23T09:12:02.355Z,42.70
2019-04-23T09:14:04.603Z,42.60
2019-04-23T09:16:42.326Z,42.60
2019-04-23T09:21:32.622Z,42.70
2019-04-23T09:24:00.667Z,42.70
2019-04-23T09:26:30.902Z,42.70
2019-04-23T09:28:57.958Z,42.70
2019-04-23T09:36:06.499Z,42.70
2019-04-23T09:38:39.886Z,42.70
2019-04-23T09:43:48.439Z,42.70
2019-04-23T09:46:22.480Z,42.80
2019-04-23T09:48:51.411Z,42.80
2019-04-23T09:51:15.618Z,42.80
2019-04-23T09:53:34.467Z,42.70
2019-04-23T09:56:01.235Z,42.70
2019-04-23T09:58:37.959Z,42.70
2019-04-23T10:01:17.358Z,42.70
2019-04-23T10:03:25.727Z,42.70
2019-04-23T10:05:48.768Z,42.70
2019-04-23T10:08:16.172Z,42.70
2019-04-23T10:10:34.286Z,42.80
2019-04-23T10:13:00.388Z,42.70
2019-04-23T10:15:33.020Z,43.40
2019-04-23T10:17:56.209Z,42.70
2019-04-23T10:20:22.526Z,42.70
2019-04-23T10:22:50.327Z,42.70
2019-04-23T10:25:17.173Z,42.70
2019-04-23T10:27:43.323Z,42.70
2019-04-23T10:30:10.216Z,42.80
2019-04-23T10:32:37.759Z,42.80
2019-04-23T10:35:14.790Z,42.70
2019-04-23T10:37:42.690Z,42.70
2019-04-23T10:40:03.537Z,42.70
2019-04-23T10:42:28.277Z,42.70
2019-04-23T10:45:27.205Z,42.70
2019-04-23T10:48:22.963Z,42.70
2019-04-23T10:50:46.506Z,42.70
2019-04-23T10:53:26.609Z,42.70
2019-04-23T10:55:47.487Z,42.70
2019-04-23T10:58:12.631Z,42.70
2019-04-23T11:00:37.646Z,42.70
2019-04-23T11:03:14.163Z,42.70
2019-04-23T11:05:42.947Z,42.70
2019-04-23T11:07:47.251Z,42.80
2019-04-23T11:10:22.024Z,42.70
2019-04-23T11:12:48.924Z,42.80
2019-04-23T11:15:33.728Z,42.80
2019-04-23T11:17:47.922Z,42.80
2019-04-23T11:25:26.389Z,42.80
2019-04-23T11:27:44.096Z,42.80
2019-04-23T11:30:19.124Z,42.80
2019-04-23T11:37:45.718Z,42.80
2019-04-23T11:40:15.535Z,42.80
2019-04-23T11:42:32.395Z,42.80
2019-04-23T11:44:56.438Z,42.80
2019-04-23T11:49:53.287Z,42.80
2019-04-23T11:51:05.146Z,42.80
2019-04-23T11:52:23.725Z,42.90
2019-04-23T11:54:43.205Z,42.90
2019-04-23T12:02:26.076Z,42.80
2019-04-23T12:05:03.250Z,42.90
2019-04-23T12:07:32.872Z,42.90
2019-04-23T12:12:28.534Z,42.90
2019-04-23T12:14:59.391Z,42.90
2019-04-23T12:17:26.418Z,42.90
2019-04-23T12:19:57.554Z,42.80
2019-04-23T12:27:30.638Z,42.80
2019-04-23T12:29:47.560Z,42.90
2019-04-23T12:32:40.588Z,42.90
2019-04-23T12:34:58.722Z,42.90
2019-04-23T12:37:14.356Z,42.90
2019-04-23T12:39:41.874Z,42.90
2019-04-23T12:42:20.010Z,42.90
2019-04-23T12:47:05.562Z,42.90
2019-04-23T12:54:43.239Z,42.90
2019-04-23T12:57:07.354Z,42.90
2019-04-23T12:59:23.829Z,42.90
2019-04-23T13:01:52.423Z,43.00
2019-04-23T13:04:22.810Z,43.00
2019-04-23T13:06:39.184Z,42.90
2019-04-23T13:11:34.859Z,43.00
2019-04-23T13:14:07.151Z,42.90
2019-04-23T13:16:37.357Z,42.90
2019-04-23T13:18:58.147Z,43.00
2019-04-23T13:21:45.089Z,42.90
2019-04-23T13:23:55.596Z,42.90
2019-04-23T13:26:16.073Z,42.90
2019-04-23T13:29:11.375Z,43.00
2019-04-23T13:31:15.039Z,42.90
2019-04-23T13:33:45.468Z,43.00
2019-04-23T13:36:18.879Z,43.00
2019-04-23T13:38:40.481Z,43.00
2019-04-23T13:48:21.455Z,43.10
2019-04-23T13:50:59.955Z,43.10
2019-04-23T13:55:45.625Z,43.10
2019-04-23T14:00:52.365Z,43.00
2019-04-23T14:06:25.062Z,43.10
2019-04-23T14:16:13.760Z,43.10
2019-04-23T14:21:08.618Z,43.10
2019-04-23T14:23:41.261Z,43.10
2019-04-23T14:26:10.480Z,43.10
2019-04-23T14:28:32.192Z,43.10
2019-04-23T14:30:53.489Z,43.20
2019-04-23T14:35:47.826Z,43.20
2019-04-23T14:43:17.881Z,43.30
2019-04-23T14:45:59.699Z,43.20
2019-04-23T14:48:12.297Z,43.30
2019-04-23T15:00:25.354Z,43.30
2019-04-23T15:02:59.615Z,43.40
2019-04-23T15:05:17.460Z,43.40
2019-04-23T15:07:51.298Z,43.40
2019-04-23T15:10:20.486Z,43.40
2019-04-23T15:15:14.292Z,43.40
2019-04-23T15:17:33.954Z,43.40
2019-04-23T15:20:04.885Z,43.40
2019-04-23T15:22:39.670Z,43.40
2019-04-23T15:25:11.058Z,43.40
2019-04-23T15:29:47.460Z,43.40
2019-04-23T15:32:30.580Z,43.50
2019-04-23T15:34:52.206Z,43.60
2019-04-23T15:39:51.251Z,43.60
2019-04-23T15:44:36.176Z,43.60
2019-04-23T15:47:14.184Z,43.60
2019-04-23T15:49:37.697Z,43.60
2019-04-23T15:52:03.927Z,43.60
2019-04-23T15:54:37.228Z,43.60
2019-04-23T15:56:55.037Z,43.70
2019-04-23T15:59:31.401Z,43.70
2019-04-23T16:01:40.611Z,43.70
2019-04-23T16:03:49.677Z,43.70
2019-04-23T16:06:19.591Z,43.70
2019-04-23T16:14:17.774Z,43.70
2019-04-23T16:16:41.240Z,43.80
2019-04-23T16:19:20.650Z,43.90
2019-04-23T16:21:47.286Z,43.80
2019-04-23T16:24:16.492Z,43.90
2019-04-23T16:26:40.545Z,44.00
2019-04-23T16:31:34.695Z,44.00
2019-04-23T16:34:04.439Z,44.00
2019-04-23T16:36:27.985Z,44.00
2019-04-23T16:41:24.490Z,44.00
2019-04-23T16:44:00.013Z,44.60
2019-04-23T16:46:21.514Z,44.10
2019-04-23T16:49:02.764Z,44.10
2019-04-23T16:53:37.296Z,44.00
2019-04-23T16:56:13.840Z,44.10
2019-04-23T17:01:05.817Z,44.20
2019-04-23T17:06:01.231Z,44.30
2019-04-23T17:08:42.582Z,44.30
2019-04-23T17:10:53.333Z,44.20
2019-04-23T17:13:25.588Z,44.20
2019-04-23T17:15:53.507Z,44.20
2019-04-23T17:18:13.559Z,45.00
2019-04-23T17:20:40.466Z,44.20
2019-04-23T17:23:16.043Z,44.30
2019-04-23T17:25:35.914Z,44.30
2019-04-23T17:28:12.531Z,44.20
2019-04-23T17:30:28.667Z,44.30
2019-04-23T17:33:05.792Z,44.30
2019-04-23T17:35:31.585Z,44.30
2019-04-23T17:38:05.111Z,44.50
2019-04-23T17:40:30.681Z,44.40
2019-04-23T17:45:32.424Z,44.50
2019-04-23T17:48:07.164Z,44.50
2019-04-23T17:50:35.817Z,44.50
2019-04-23T17:53:03.126Z,44.50
2019-04-23T17:55:33.581Z,44.50
2019-04-23T17:58:01.699Z,44.50
2019-04-23T18:00:40.243Z,44.60
2019-04-23T18:05:16.295Z,44.60
2019-04-23T18:07:50.445Z,44.60
2019-04-23T18:12:44.087Z,44.60
2019-04-23T18:15:14.895Z,44.70
2019-04-23T18:17:36.008Z,44.80
2019-04-23T18:20:28.265Z,44.80
2019-04-23T18:25:11.091Z,44.80
2019-04-23T18:27:42.467Z,44.80
2019-04-23T18:30:15.756Z,44.80
2019-04-23T18:33:18.185Z,44.80
2019-04-23T18:37:46.373Z,44.70
2019-04-23T18:40:03.653Z,44.70
2019-04-23T18:42:46.357Z,44.70
2019-04-23T18:45:20.417Z,44.80
2019-04-23T18:47:43.031Z,44.80
2019-04-23T18:50:02.336Z,44.80
2019-04-23T18:54:53.841Z,44.80
2019-04-23T18:57:25.204Z,44.80
2019-04-23T19:05:18.614Z,44.80
2019-04-23T19:07:56.696Z,44.80
2019-04-23T19:10:29.180Z,44.80
2019-04-23T19:12:48.422Z,44.80
2019-04-23T19:15:23.454Z,44.90
2019-04-23T19:20:15.149Z,44.80
2019-04-23T19:25:02.018Z,44.80
2019-04-23T19:27:39.601Z,44.80
2019-04-23T19:30:04.938Z,44.80
2019-04-23T19:32:34.005Z,44.80
2019-04-23T19:34:49.190Z,44.80
2019-04-23T19:37:34.964Z,44.80
2019-04-23T19:39:48.488Z,44.80
2019-04-23T19:42:29.029Z,44.80
2019-04-23T19:47:16.980Z,44.80
2019-04-23T19:52:03.237Z,44.80
2019-04-23T19:57:19.298Z,44.80
2019-04-23T19:59:43.106Z,44.80
2019-04-23T20:02:00.508Z,44.80
2019-04-23T20:04:35.552Z,44.80
2019-04-23T20:09:37.923Z,44.80
2019-04-23T20:14:11.303Z,44.80
2019-04-23T20:16:50.591Z,44.80
2019-04-23T20:19:19.214Z,44.90
2019-04-23T20:21:47.335Z,44.80
2019-04-23T20:26:45.739Z,45.50
2019-04-23T20:29:19.625Z,44.80
2019-04-23T20:33:02.984Z,44.80
2019-04-23T20:36:46.153Z,44.80
2019-04-23T20:39:14.302Z,44.80
2019-04-23T20:41:56.427Z,44.80
2019-04-23T20:46:32.134Z,44.80
2019-04-23T20:49:00.561Z,44.80
2019-04-23T20:51:34.165Z,44.80
2019-04-23T20:54:02.156Z,44.80
2019-04-23T20:56:30.197Z,44.70
2019-04-23T20:59:00.210Z,44.80
2019-04-23T21:01:31.061Z,44.70
2019-04-23T21:04:13.515Z,44.80
2019-04-23T21:06:21.576Z,44.80
2019-04-23T21:11:36.651Z,44.80
2019-04-23T21:13:56.233Z,44.80
2019-04-23T21:16:08.847Z,44.90
2019-04-23T21:18:36.645Z,44.80
2019-04-23T21:20:56.157Z,44.80
2019-04-23T21:25:52.407Z,44.80
2019-04-23T21:31:16.393Z,44.90
2019-04-23T21:33:50.763Z,44.80
2019-04-23T21:38:48.965Z,44.80
2019-04-23T21:41:27.147Z,44.80
2019-04-23T21:44:00.550Z,44.80
2019-04-23T21:48:48.759Z,44.80
2019-04-23T21:53:38.771Z,44.80
2019-04-23T21:58:26.166Z,44.80
2019-04-23T22:03:34.403Z,44.80
2019-04-23T22:05:51.361Z,44.90
2019-04-23T22:08:06.950Z,44.80
2019-04-23T22:10:45.599Z,44.80
2019-04-23T22:15:45.196Z,44.80
2019-04-23T22:18:00.582Z,44.80
2019-04-23T22:23:05.162Z,44.80
2019-04-23T22:25:22.249Z,44.80
2019-04-23T22:27:54.245Z,44.80
2019-04-23T22:30:12.869Z,44.80
2019-04-23T22:32:56.164Z,44.80
2019-04-23T22:35:07.353Z,44.80
2019-04-23T22:37:46.343Z,44.90
2019-04-23T22:42:58.199Z,44.90
2019-04-23T22:47:33.674Z,44.90
2019-04-23T22:50:02.556Z,44.90
2019-04-23T22:52:21.576Z,44.90
2019-04-23T22:54:57.253Z,44.90
2019-04-23T22:57:09.367Z,45.00
2019-04-23T22:59:56.951Z,44.90
2019-04-23T23:02:30.463Z,44.90
2019-04-23T23:05:06.363Z,44.90
2019-04-23T23:07:19.748Z,45.00
2019-04-23T23:09:50.941Z,44.90
2019-04-23T23:12:13.782Z,45.00
2019-04-23T23:14:36.434Z,44.90
2019-04-23T23:17:02.215Z,44.90
2019-04-23T23:19:40.399Z,44.90
2019-04-23T23:22:03.335Z,44.90
2019-04-23T23:29:46.688Z,45.60
2019-04-23T23:31:56.072Z,44.90
2019-04-23T23:34:15.422Z,44.90
2019-04-23T23:36:46.885Z,44.90
2019-04-23T23:39:21.155Z,45.00
2019-04-23T23:41:43.935Z,44.90
2019-04-23T23:44:27.676Z,45.00
2019-04-23T23:48:59.440Z,44.90
2019-04-23T23:51:29.426Z,44.90
2019-04-23T23:54:00.405Z,45.00
